Time;durP1;ratioP1;P1;durP2;ratioP2;P2;SDS_P1;SDS_P2;PMS_P1;PMS_P2;Temp;Humidity;BMP_temperature;BMP_pressure;BME280_temperature;BME280_humidity;BME280_pressure;Samples;Min_cycle;Max_cycle;Signal;HPM_P1;HPM_P2
2022/04/05 00:01:27;;;;;;;6.20;4.57;;;;;;;;;;5127998;27;20450;-70
2022/04/05 00:03:55;;;;;;;9.90;5.47;;;;;;;;;;5118231;27;20563;-71
2022/04/05 00:06:22;;;;;;;6.60;5.40;;;;;;;;;;5129030;27;20553;-71
2022/04/05 00:08:49;;;;;;;6.53;5.80;;;;;;;;;;5125966;27;20549;-71
2022/04/05 00:11:16;;;;;;;5.50;4.77;;;;;;;;;;5130088;27;20446;-70
2022/04/05 00:13:45;;;;;;;6.73;5.63;;;;;;;;;;5130631;27;20449;-71
2022/04/05 00:16:12;;;;;;;6.50;5.87;;;;;;;;;;5127851;27;20442;-71
2022/04/05 00:18:39;;;;;;;5.83;4.60;;;;;;;;;;5130022;27;20475;-70
2022/04/05 00:21:06;;;;;;;5.67;4.90;;;;;;;;;;5131150;27;20431;-71
2022/04/05 00:23:34;;;;;;;7.20;5.90;;;;;;;;;;5125733;27;20458;-70
2022/04/05 00:26:01;;;;;;;8.63;5.00;;;;;;;;;;5123683;27;20451;-70
2022/04/05 00:28:28;;;;;;;7.60;5.33;;;;;;;;;;5121455;27;20534;-70
2022/04/05 00:30:57;;;;;;;8.53;5.47;;;;;;;;;;5128358;27;20942;-71
2022/04/05 00:33:24;;;;;;;7.23;5.57;;;;;;;;;;5121940;27;20461;-71
2022/04/05 00:35:51;;;;;;;6.13;5.00;;;;;;;;;;5131195;27;20534;-70
2022/04/05 00:38:18;;;;;;;6.60;5.43;;;;;;;;;;5105334;27;20580;-70
2022/04/05 00:40:46;;;;;;;8.60;4.90;;;;;;;;;;5128971;27;20487;-70
2022/04/05 00:43:13;;;;;;;11.80;4.80;;;;;;;;;;5118969;27;20449;-70
2022/04/05 00:45:40;;;;;;;7.27;5.20;;;;;;;;;;5119899;27;20531;-70
2022/04/05 00:48:09;;;;;;;5.77;5.23;;;;;;;;;;5126916;27;20479;-71
2022/04/05 00:50:37;;;;;;;6.80;5.60;;;;;;;;;;5130831;28;20549;-69
2022/04/05 00:53:06;;;;;;;6.47;5.87;;;;;;;;;;5129115;28;20566;-69
2022/04/05 00:55:34;;;;;;;6.03;5.30;;;;;;;;;;5129375;27;20969;-69
2022/04/05 00:58:02;;;;;;;6.00;5.40;;;;;;;;;;5129704;27;20482;-69
2022/04/05 01:00:30;;;;;;;6.57;4.90;;;;;;;;;;5126295;27;20443;-69
2022/04/05 01:02:58;;;;;;;6.50;5.83;;;;;;;;;;5124808;27;20448;-69
2022/04/05 01:05:28;;;;;;;7.53;5.20;;;;;;;;;;5123842;27;20443;-70
2022/04/05 01:07:56;;;;;;;5.80;4.77;;;;;;;;;;5117550;27;20451;-70
2022/04/05 01:10:24;;;;;;;5.30;4.83;;;;;;;;;;5129903;27;20447;-69
2022/04/05 01:12:51;;;;;;;5.50;4.87;;;;;;;;;;5127544;27;20439;-70
2022/04/05 01:15:18;;;;;;;11.30;7.40;;;;;;;;;;5134482;27;20453;-69
2022/04/05 01:17:45;;;;;;;6.63;5.80;;;;;;;;;;5134188;27;20474;-69
2022/04/05 01:20:12;;;;;;;8.17;4.10;;;;;;;;;;5133692;27;20447;-70
2022/04/05 01:22:48;;;;;;;8.00;5.53;;;;;;;;;;5134485;27;20946;-70
2022/04/05 01:25:17;;;;;;;6.90;5.07;;;;;;;;;;5132839;27;20495;-70
2022/04/05 01:27:44;;;;;;;7.70;5.47;;;;;;;;;;5123403;27;20449;-70
2022/04/05 01:30:11;;;;;;;5.40;4.90;;;;;;;;;;5133040;27;20442;-69
2022/04/05 01:32:39;;;;;;;6.90;5.23;;;;;;;;;;5130966;27;20454;-71
2022/04/05 01:35:06;;;;;;;9.03;5.23;;;;;;;;;;5115837;27;20446;-71
2022/04/05 01:37:33;;;;;;;9.70;4.90;;;;;;;;;;5103611;27;20484;-70
2022/04/05 01:40:01;;;;;;;6.03;4.93;;;;;;;;;;5131207;27;20479;-70
2022/04/05 01:42:30;;;;;;;7.10;4.83;;;;;;;;;;5125942;27;20454;-70
2022/04/05 01:44:57;;;;;;;6.50;5.33;;;;;;;;;;5133577;27;20478;-70
2022/04/05 01:47:24;;;;;;;6.77;4.90;;;;;;;;;;5133791;27;20446;-69
2022/04/05 01:49:52;;;;;;;10.60;5.63;;;;;;;;;;5129789;27;20553;-70
2022/04/05 01:52:19;;;;;;;5.77;4.80;;;;;;;;;;5128188;27;20717;-70
2022/04/05 01:54:47;;;;;;;6.73;5.07;;;;;;;;;;5128186;27;20457;-70
2022/04/05 01:57:15;;;;;;;5.83;4.70;;;;;;;;;;5130384;27;20443;-72
2022/04/05 01:59:44;;;;;;;5.87;4.30;;;;;;;;;;5128502;27;20482;-70
2022/04/05 02:02:12;;;;;;;6.80;5.33;;;;;;;;;;5121341;27;20443;-70
2022/04/05 02:04:39;;;;;;;7.47;4.90;;;;;;;;;;5131689;27;20497;-70
2022/04/05 02:07:10;;;;;;;5.40;4.73;;;;;;;;;;5132714;27;20449;-69
2022/04/05 02:09:37;;;;;;;6.27;5.67;;;;;;;;;;5132991;27;20458;-70
2022/04/05 02:12:04;;;;;;;6.30;5.03;;;;;;;;;;5132738;27;20446;-70
2022/04/05 02:14:31;;;;;;;6.40;4.97;;;;;;;;;;5125817;27;20531;-69
2022/04/05 02:17:00;;;;;;;8.43;5.27;;;;;;;;;;5120490;27;20447;-69
2022/04/05 02:19:27;;;;;;;7.90;4.77;;;;;;;;;;5128307;27;20565;-69
2022/04/05 02:21:55;;;;;;;6.57;4.83;;;;;;;;;;5130571;27;20443;-69
2022/04/05 02:24:22;;;;;;;6.17;5.17;;;;;;;;;;5127230;27;20450;-70
2022/04/05 02:26:49;;;;;;;6.70;5.10;;;;;;;;;;5130040;27;20451;-69
2022/04/05 02:29:17;;;;;;;6.30;5.67;;;;;;;;;;5133242;27;20957;-69
2022/04/05 02:31:44;;;;;;;6.60;5.93;;;;;;;;;;5133499;27;20871;-69
2022/04/05 02:34:12;;;;;;;7.60;4.43;;;;;;;;;;5123003;27;20534;-70
2022/04/05 02:36:40;;;;;;;8.13;5.90;;;;;;;;;;5119908;27;20441;-70
2022/04/05 02:39:07;;;;;;;8.20;6.27;;;;;;;;;;5115539;27;20581;-70
2022/04/05 02:41:35;;;;;;;6.30;4.57;;;;;;;;;;5120572;27;20455;-69
2022/04/05 02:44:02;;;;;;;6.07;5.00;;;;;;;;;;5132971;27;20931;-70
2022/04/05 02:46:29;;;;;;;6.57;4.77;;;;;;;;;;5133310;27;20445;-69
2022/04/05 02:48:56;;;;;;;7.17;5.87;;;;;;;;;;5133689;27;20495;-69
2022/04/05 02:51:25;;;;;;;8.47;6.10;;;;;;;;;;5132859;27;20982;-69
2022/04/05 02:53:52;;;;;;;6.63;5.10;;;;;;;;;;5130054;27;20451;-70
2022/04/05 02:56:19;;;;;;;6.27;5.33;;;;;;;;;;5132974;27;20522;-70
2022/04/05 02:58:48;;;;;;;6.90;4.60;;;;;;;;;;5133291;27;20474;-71
2022/04/05 03:01:16;;;;;;;6.67;5.67;;;;;;;;;;5132456;27;20848;-70
2022/04/05 03:03:43;;;;;;;10.03;5.10;;;;;;;;;;5120427;27;20444;-70
2022/04/05 03:06:11;;;;;;;4.53;4.13;;;;;;;;;;5106115;27;20489;-70
2022/04/05 03:08:40;;;;;;;5.37;4.10;;;;;;;;;;5132913;27;20465;-70
2022/04/05 03:11:08;;;;;;;5.30;4.10;;;;;;;;;;5132622;27;20525;-71
2022/04/05 03:13:35;;;;;;;7.40;5.13;;;;;;;;;;5132307;27;20526;-70
2022/04/05 03:16:02;;;;;;;6.57;5.50;;;;;;;;;;5133050;27;20431;-70
2022/04/05 03:18:29;;;;;;;7.80;5.53;;;;;;;;;;5132852;27;20858;-70
2022/04/05 03:20:56;;;;;;;11.20;7.57;;;;;;;;;;5132971;27;20818;-71
2022/04/05 03:23:24;;;;;;;7.13;5.57;;;;;;;;;;5131799;27;20930;-70
2022/04/05 03:25:53;;;;;;;5.50;4.97;;;;;;;;;;5132623;27;20562;-70
2022/04/05 03:28:20;;;;;;;7.13;4.70;;;;;;;;;;5132123;27;20451;-70
2022/04/05 03:30:48;;;;;;;6.90;5.13;;;;;;;;;;5122179;27;20443;-70
2022/04/05 03:33:15;;;;;;;5.70;4.90;;;;;;;;;;5126026;27;20466;-70
2022/04/05 03:35:42;;;;;;;7.60;6.20;;;;;;;;;;5132620;27;20439;-70
2022/04/05 03:38:10;;;;;;;7.20;5.10;;;;;;;;;;5121519;27;20479;-70
2022/04/05 03:40:37;;;;;;;4.87;4.27;;;;;;;;;;5131656;27;20474;-70
2022/04/05 03:43:07;;;;;;;6.20;5.60;;;;;;;;;;5128773;27;20512;-71
2022/04/05 03:45:34;;;;;;;7.00;5.50;;;;;;;;;;5113486;27;20490;-71
2022/04/05 03:48:01;;;;;;;6.17;4.17;;;;;;;;;;5129151;27;20435;-71
2022/04/05 03:50:31;;;;;;;7.60;5.33;;;;;;;;;;5129260;27;20455;-70
2022/04/05 03:52:59;;;;;;;6.10;4.47;;;;;;;;;;5126868;27;20605;-70
2022/04/05 03:55:26;;;;;;;7.13;5.00;;;;;;;;;;5122505;27;20895;-70
2022/04/05 03:57:53;;;;;;;6.50;4.50;;;;;;;;;;5123145;27;20448;-70
2022/04/05 04:00:22;;;;;;;6.13;4.50;;;;;;;;;;5122332;27;20486;-70
2022/04/05 04:02:49;;;;;;;6.17;5.60;;;;;;;;;;5122021;27;20458;-69
2022/04/05 04:05:20;;;;;;;4.60;4.20;;;;;;;;;;5123581;27;20478;-70
2022/04/05 04:07:48;;;;;;;8.17;4.63;;;;;;;;;;5129791;27;20565;-70
2022/04/05 04:10:15;;;;;;;7.73;4.97;;;;;;;;;;5129736;27;20798;-70
2022/04/05 04:12:42;;;;;;;6.27;4.77;;;;;;;;;;5115790;27;20534;-70
2022/04/05 04:15:10;;;;;;;5.30;4.57;;;;;;;;;;5118608;27;20448;-70
2022/04/05 04:17:38;;;;;;;5.27;4.30;;;;;;;;;;5118292;27;20451;-70
2022/04/05 04:20:06;;;;;;;7.30;4.77;;;;;;;;;;5124722;27;20531;-70
2022/04/05 04:22:34;;;;;;;6.17;4.97;;;;;;;;;;5125347;27;20441;-68
2022/04/05 04:25:01;;;;;;;6.63;4.60;;;;;;;;;;5124726;27;20482;-70
2022/04/05 04:27:28;;;;;;;7.70;5.40;;;;;;;;;;5131831;27;20482;-69
2022/04/05 04:29:55;;;;;;;5.70;4.80;;;;;;;;;;5131445;27;20541;-69
2022/04/05 04:32:23;;;;;;;8.00;5.13;;;;;;;;;;5130435;27;20558;-70
2022/04/05 04:34:52;;;;;;;8.83;5.27;;;;;;;;;;5112428;27;20786;-73
2022/04/05 04:37:19;;;;;;;5.90;5.30;;;;;;;;;;5121268;27;20931;-71
2022/04/05 04:39:46;;;;;;;8.10;5.70;;;;;;;;;;5127521;27;20851;-68
2022/04/05 04:42:13;;;;;;;5.90;4.63;;;;;;;;;;5130880;27;20538;-71
2022/04/05 04:44:41;;;;;;;8.90;4.70;;;;;;;;;;5130065;27;20469;-70
2022/04/05 04:47:08;;;;;;;6.17;4.20;;;;;;;;;;5123556;27;20439;-71
2022/04/05 04:49:35;;;;;;;10.03;5.50;;;;;;;;;;5130945;27;20957;-71
2022/04/05 04:52:04;;;;;;;7.93;5.53;;;;;;;;;;5131009;27;20450;-71
2022/04/05 04:54:31;;;;;;;10.67;6.50;;;;;;;;;;5117362;27;20446;-71
2022/04/05 04:56:58;;;;;;;6.63;5.90;;;;;;;;;;5131565;27;20931;-74
2022/04/05 04:59:26;;;;;;;5.40;4.67;;;;;;;;;;5130945;27;20485;-71
2022/04/05 05:01:53;;;;;;;7.20;5.90;;;;;;;;;;5131295;27;20541;-72
2022/04/05 05:04:20;;;;;;;5.57;4.73;;;;;;;;;;5116310;27;20471;-71
2022/04/05 05:06:47;;;;;;;6.10;4.70;;;;;;;;;;5131083;27;21014;-71
2022/04/05 05:09:16;;;;;;;7.73;5.37;;;;;;;;;;5130813;27;20462;-70
2022/04/05 05:11:44;;;;;;;8.00;5.60;;;;;;;;;;5131131;27;20542;-71
2022/04/05 05:14:11;;;;;;;7.67;5.67;;;;;;;;;;5130787;27;20472;-72
2022/04/05 05:16:38;;;;;;;7.10;5.70;;;;;;;;;;5132318;27;20442;-71
2022/04/05 05:19:06;;;;;;;7.63;5.83;;;;;;;;;;5134200;27;21009;-72
2022/04/05 05:21:33;;;;;;;7.97;5.90;;;;;;;;;;5132635;27;20439;-71
2022/04/05 05:24:00;;;;;;;9.10;6.17;;;;;;;;;;5132031;28;20467;-71
2022/04/05 05:26:29;;;;;;;5.93;4.47;;;;;;;;;;5132814;27;20534;-72
2022/04/05 05:28:56;;;;;;;5.90;5.17;;;;;;;;;;5133527;27;20525;-72
2022/04/05 05:31:23;;;;;;;7.63;4.83;;;;;;;;;;5132791;27;20446;-70
2022/04/05 05:33:50;;;;;;;7.63;4.27;;;;;;;;;;5125419;27;20537;-71
2022/04/05 05:36:17;;;;;;;6.80;5.30;;;;;;;;;;5129649;27;20459;-71
2022/04/05 05:38:44;;;;;;;9.57;5.70;;;;;;;;;;5118859;28;21605;-70
2022/04/05 05:41:11;;;;;;;8.67;5.30;;;;;;;;;;5130640;27;20475;-71
2022/04/05 05:43:41;;;;;;;10.27;4.77;;;;;;;;;;5130664;27;20521;-70
2022/04/05 05:46:08;;;;;;;6.50;5.23;;;;;;;;;;5130552;27;20443;-72
2022/04/05 05:48:35;;;;;;;5.60;4.10;;;;;;;;;;5130973;27;20439;-72
2022/04/05 05:51:02;;;;;;;6.40;4.80;;;;;;;;;;5130818;27;20446;-71
2022/04/05 05:53:30;;;;;;;8.20;5.67;;;;;;;;;;5131015;27;20455;-71
2022/04/05 05:55:57;;;;;;;6.77;6.10;;;;;;;;;;5134540;27;20464;-71
2022/04/05 05:58:24;;;;;;;9.93;6.10;;;;;;;;;;5134018;27;20529;-71
2022/04/05 06:00:53;;;;;;;7.10;5.80;;;;;;;;;;5134034;27;20496;-72
2022/04/05 06:03:20;;;;;;;5.90;4.77;;;;;;;;;;5124537;27;20532;-72
2022/04/05 06:05:47;;;;;;;8.00;5.57;;;;;;;;;;5130455;27;20474;-71
2022/04/05 06:08:15;;;;;;;7.20;5.67;;;;;;;;;;5134190;27;20454;-71
2022/04/05 06:10:42;;;;;;;8.00;5.70;;;;;;;;;;5133934;27;20809;-71
2022/04/05 06:13:09;;;;;;;8.57;5.30;;;;;;;;;;5133489;27;20911;-72
2022/04/05 06:15:37;;;;;;;10.97;5.67;;;;;;;;;;5134060;27;20842;-71
2022/04/05 06:18:06;;;;;;;7.17;5.83;;;;;;;;;;5133495;27;20442;-71
2022/04/05 06:20:33;;;;;;;9.00;5.20;;;;;;;;;;5133916;27;20479;-71
2022/04/05 06:23:01;;;;;;;9.93;5.37;;;;;;;;;;5133414;27;20537;-71
2022/04/05 06:25:30;;;;;;;6.67;5.20;;;;;;;;;;5133727;27;20446;-72
2022/04/05 06:27:57;;;;;;;12.60;6.50;;;;;;;;;;5134166;27;20829;-72
2022/04/05 06:30:25;;;;;;;9.70;5.83;;;;;;;;;;5133477;27;20499;-72
2022/04/05 06:32:52;;;;;;;10.67;7.50;;;;;;;;;;5128541;27;20483;-72
2022/04/05 06:35:21;;;;;;;8.10;5.83;;;;;;;;;;5132063;27;20801;-71
2022/04/05 06:37:48;;;;;;;7.37;5.47;;;;;;;;;;5119414;27;20447;-72
2022/04/05 06:40:16;;;;;;;6.00;5.17;;;;;;;;;;5133039;27;20493;-72
2022/04/05 06:42:44;;;;;;;6.00;5.40;;;;;;;;;;5133481;27;20529;-72
2022/04/05 06:45:12;;;;;;;8.57;5.83;;;;;;;;;;5133701;27;20465;-72
2022/04/05 06:47:39;;;;;;;7.83;4.53;;;;;;;;;;5133291;27;20482;-72
2022/04/05 06:50:08;;;;;;;6.70;5.10;;;;;;;;;;5132672;27;20447;-72
2022/04/05 06:52:37;;;;;;;6.50;5.60;;;;;;;;;;5132837;27;20455;-71
2022/04/05 06:55:04;;;;;;;8.83;5.67;;;;;;;;;;5133242;27;20657;-72
2022/04/05 06:57:32;;;;;;;5.97;4.47;;;;;;;;;;5133567;27;20809;-72
2022/04/05 06:59:59;;;;;;;9.30;5.30;;;;;;;;;;5133356;27;21085;-72
2022/04/05 07:02:26;;;;;;;7.57;5.17;;;;;;;;;;5131369;27;20491;-72
2022/04/05 07:04:53;;;;;;;8.40;5.70;;;;;;;;;;5122083;27;20538;-72
2022/04/05 07:07:20;;;;;;;7.80;5.60;;;;;;;;;;5132889;27;20474;-72
2022/04/05 07:09:49;;;;;;;7.63;5.23;;;;;;;;;;5132952;27;20519;-72
2022/04/05 07:12:16;;;;;;;6.33;5.70;;;;;;;;;;5132317;27;20439;-72
2022/04/05 07:14:43;;;;;;;6.30;4.97;;;;;;;;;;5132976;27;20506;-71
2022/04/05 07:17:11;;;;;;;6.13;4.87;;;;;;;;;;5132489;27;20978;-72
2022/04/05 07:19:38;;;;;;;6.40;4.50;;;;;;;;;;5132830;27;20829;-71
2022/04/05 07:22:05;;;;;;;6.03;4.23;;;;;;;;;;5132427;27;20877;-72
2022/04/05 07:24:32;;;;;;;5.53;4.93;;;;;;;;;;5132519;27;20947;-72
2022/04/05 07:27:01;;;;;;;8.10;5.90;;;;;;;;;;5132442;27;20534;-72
2022/04/05 07:29:28;;;;;;;6.80;4.93;;;;;;;;;;5132545;27;20981;-72
2022/04/05 07:31:55;;;;;;;6.67;4.30;;;;;;;;;;5132532;27;20467;-71
2022/04/05 07:34:23;;;;;;;6.50;4.43;;;;;;;;;;5126125;27;20465;-72
2022/04/05 07:36:50;;;;;;;7.17;5.00;;;;;;;;;;5126876;27;20471;-71
2022/04/05 07:39:19;;;;;;;10.23;5.07;;;;;;;;;;5124250;27;20886;-72
2022/04/05 07:41:46;;;;;;;5.70;5.07;;;;;;;;;;5132176;27;20447;-71
2022/04/05 07:44:15;;;;;;;7.80;5.80;;;;;;;;;;5131486;27;20529;-71
2022/04/05 07:46:42;;;;;;;5.87;5.00;;;;;;;;;;5132479;27;20578;-71
2022/04/05 07:49:09;;;;;;;6.30;4.77;;;;;;;;;;5131521;27;20873;-71
2022/04/05 07:51:36;;;;;;;9.00;5.33;;;;;;;;;;5132587;27;20847;-71
2022/04/05 07:54:05;;;;;;;11.20;5.47;;;;;;;;;;5131429;27;20525;-72
2022/04/05 07:56:33;;;;;;;5.90;4.80;;;;;;;;;;5132205;27;21022;-71
2022/04/05 07:59:01;;;;;;;7.03;5.03;;;;;;;;;;5131705;27;20457;-71
2022/04/05 08:01:30;;;;;;;6.83;4.77;;;;;;;;;;5131893;27;20489;-71
2022/04/05 08:03:57;;;;;;;7.40;4.97;;;;;;;;;;5119544;27;20924;-72
2022/04/05 08:06:25;;;;;;;7.20;4.10;;;;;;;;;;5131978;27;20529;-71
2022/04/05 08:08:52;;;;;;;6.80;4.60;;;;;;;;;;5131654;27;20458;-71
2022/04/05 08:11:20;;;;;;;8.03;5.33;;;;;;;;;;5131482;27;20534;-71
2022/04/05 08:13:47;;;;;;;6.43;4.43;;;;;;;;;;5119284;27;20613;-72
2022/04/05 08:16:14;;;;;;;6.20;4.70;;;;;;;;;;5132075;27;20521;-71
2022/04/05 08:18:43;;;;;;;7.17;4.83;;;;;;;;;;5132426;27;20458;-72
2022/04/05 08:21:10;;;;;;;5.37;4.77;;;;;;;;;;5131862;27;20490;-75
2022/04/05 08:23:38;;;;;;;6.47;4.57;;;;;;;;;;5131960;27;20483;-71
2022/04/05 08:26:05;;;;;;;6.80;4.97;;;;;;;;;;5131592;27;20451;-71
2022/04/05 08:28:32;;;;;;;6.20;4.20;;;;;;;;;;5132240;27;20447;-72
2022/04/05 08:31:00;;;;;;;7.53;4.87;;;;;;;;;;5132251;27;20451;-72
2022/04/05 08:33:27;;;;;;;6.70;5.10;;;;;;;;;;5125854;27;20453;-71
2022/04/05 08:35:56;;;;;;;5.80;4.57;;;;;;;;;;5132373;27;20446;-71
2022/04/05 08:38:23;;;;;;;4.03;3.63;;;;;;;;;;5117813;27;20455;-70
2022/04/05 08:40:51;;;;;;;6.63;4.90;;;;;;;;;;5132206;27;20514;-71
2022/04/05 08:43:18;;;;;;;5.63;4.07;;;;;;;;;;5130751;27;20475;-72
2022/04/05 08:45:46;;;;;;;4.77;4.13;;;;;;;;;;5132117;27;20866;-71
2022/04/05 08:48:14;;;;;;;5.00;3.90;;;;;;;;;;5131137;27;20529;-71
2022/04/05 08:50:42;;;;;;;6.17;4.63;;;;;;;;;;5131868;27;20537;-71
2022/04/05 08:53:11;;;;;;;5.83;4.17;;;;;;;;;;5131058;27;20537;-71
2022/04/05 08:55:38;;;;;;;6.30;4.37;;;;;;;;;;5131703;27;20445;-71
2022/04/05 08:58:05;;;;;;;5.93;4.07;;;;;;;;;;5131511;27;20443;-71
2022/04/05 09:00:32;;;;;;;5.90;4.60;;;;;;;;;;5131636;27;20482;-71
2022/04/05 09:03:00;;;;;;;8.00;3.90;;;;;;;;;;5125229;27;20530;-72
2022/04/05 09:05:29;;;;;;;4.90;3.60;;;;;;;;;;5126302;28;20442;-71
2022/04/05 09:08:12;;;;;;;5.80;4.20;;;;;;;;;;5131987;27;20461;-72
2022/04/05 09:10:41;;;;;;;7.20;4.70;;;;;;;;;;5131975;27;20442;-71
2022/04/05 09:13:10;;;;;;;6.23;4.30;;;;;;;;;;5131046;27;20531;-72
2022/04/05 09:15:38;;;;;;;3.87;3.30;;;;;;;;;;5131380;27;20949;-72
2022/04/05 09:18:06;;;;;;;5.10;4.17;;;;;;;;;;5131426;27;20498;-71
2022/04/05 09:20:44;;;;;;;4.37;3.57;;;;;;;;;;5131293;27;20984;-71
2022/04/05 09:23:23;;;;;;;3.53;3.07;;;;;;;;;;5130764;27;20853;-72
2022/04/05 09:25:56;;;;;;;6.60;3.80;;;;;;;;;;5131567;27;20496;-71
2022/04/05 09:28:27;;;;;;;4.93;3.23;;;;;;;;;;5131510;27;20823;-72
2022/04/05 09:30:58;;;;;;;4.47;3.00;;;;;;;;;;5125233;27;20451;-71
2022/04/05 09:33:25;;;;;;;5.73;3.40;;;;;;;;;;5127649;27;20905;-72
2022/04/05 09:36:02;;;;;;;4.60;3.00;;;;;;;;;;5135525;27;20843;-72
2022/04/05 09:38:29;;;;;;;5.67;3.33;;;;;;;;;;5121372;27;20446;-72
2022/04/05 09:41:09;;;;;;;4.10;2.43;;;;;;;;;;5135696;27;20479;-71
2022/04/05 09:43:36;;;;;;;5.23;3.40;;;;;;;;;;5110107;27;20530;-71
2022/04/05 09:46:05;;;;;;;5.20;3.80;;;;;;;;;;5134711;27;20785;-71
2022/04/05 09:48:33;;;;;;;5.60;3.30;;;;;;;;;;5135588;27;20997;-72
2022/04/05 09:51:05;;;;;;;4.77;3.13;;;;;;;;;;5134711;27;20477;-71
2022/04/05 09:53:43;;;;;;;4.97;2.97;;;;;;;;;;5134670;27;20438;-71
2022/04/05 09:56:12;;;;;;;4.50;3.30;;;;;;;;;;5134137;27;20517;-72
2022/04/05 09:58:44;;;;;;;5.67;3.33;;;;;;;;;;5134948;27;20454;-72
2022/04/05 10:01:11;;;;;;;5.43;4.70;;;;;;;;;;5134165;27;20459;-71
2022/04/05 10:03:40;;;;;;;4.17;3.40;;;;;;;;;;5123630;27;20447;-73
2022/04/05 10:06:07;;;;;;;4.67;3.53;;;;;;;;;;5133064;27;20442;-71
2022/04/05 10:08:35;;;;;;;5.20;4.00;;;;;;;;;;5135768;27;20446;-71
2022/04/05 10:11:03;;;;;;;5.30;3.40;;;;;;;;;;5135522;27;20439;-72
2022/04/05 10:13:32;;;;;;;5.20;3.77;;;;;;;;;;5135429;27;20462;-72
2022/04/05 10:16:01;;;;;;;3.30;2.80;;;;;;;;;;5108742;27;20538;-73
2022/04/05 10:18:33;;;;;;;4.20;3.20;;;;;;;;;;5135247;27;20446;-71
2022/04/05 10:21:00;;;;;;;5.80;3.27;;;;;;;;;;5134273;27;20566;-72
2022/04/05 10:23:28;;;;;;;4.57;3.90;;;;;;;;;;5134775;27;20789;-72
2022/04/05 10:25:55;;;;;;;7.37;3.97;;;;;;;;;;5134581;27;20930;-72
2022/04/05 10:28:24;;;;;;;4.50;3.57;;;;;;;;;;5133908;27;21334;-72
2022/04/05 10:30:57;;;;;;;3.97;3.57;;;;;;;;;;5134517;27;20438;-71
2022/04/05 10:33:27;;;;;;;6.03;4.47;;;;;;;;;;5127502;27;20439;-71
2022/04/05 10:35:57;;;;;;;3.50;3.20;;;;;;;;;;5134549;27;20517;-72
2022/04/05 10:38:25;;;;;;;7.00;5.30;;;;;;;;;;5120077;27;20458;-70
2022/04/05 10:41:10;;;;;;;4.70;3.63;;;;;;;;;;5133771;27;20597;-71
2022/04/05 10:43:39;;;;;;;5.17;3.60;;;;;;;;;;5133565;27;20537;-72
2022/04/05 10:46:08;;;;;;;6.10;4.13;;;;;;;;;;5134027;27;20829;-71
2022/04/05 10:48:35;;;;;;;6.10;3.80;;;;;;;;;;5134031;27;20507;-71
2022/04/05 10:51:12;;;;;;;4.63;3.53;;;;;;;;;;5133371;27;20442;-71
2022/04/05 10:54:17;;;;;;;4.87;3.80;;;;;;;;;;5133640;27;20924;-71
2022/04/05 10:56:28;;;;;;;5.70;3.83;;;;;;;;;;5120203;27;20435;-72
2022/04/05 10:59:19;;;;;;;4.73;4.00;;;;;;;;;;5134225;27;20439;-71
2022/04/05 11:01:47;;;;;;;4.10;3.23;;;;;;;;;;5133689;27;20473;-71
2022/04/05 11:04:30;;;;;;;6.50;3.20;;;;;;;;;;5120082;27;20435;-72
2022/04/05 11:07:11;;;;;;;4.77;3.80;;;;;;;;;;5133965;27;20431;-71
2022/04/05 11:09:46;;;;;;;3.63;2.70;;;;;;;;;;5133722;27;20914;-71
2022/04/05 11:12:18;;;;;;;3.90;2.87;;;;;;;;;;5132358;27;20914;-72
2022/04/05 11:14:49;;;;;;;4.40;3.53;;;;;;;;;;5133906;27;20500;-72
2022/04/05 11:17:20;;;;;;;2.50;2.30;;;8.80;99.90;;;;;;5132955;27;20464;-71
2022/04/05 11:19:50;;;;;;;3.03;2.73;;;9.80;25.40;;;;;;5133658;27;20431;-71
2022/04/05 11:22:28;;;;;;;3.50;2.97;;;9.80;1.00;;;;;;5132115;27;20527;-71
2022/04/05 11:24:57;;;;;;;4.17;3.23;;;9.90;1.00;;;;;;5133366;27;20474;-72
2022/04/05 11:27:30;;;;;;;3.30;3.00;;;10.00;95.50;;;;;;5133365;27;20442;-72
2022/04/05 11:30:37;;;;;;;3.33;2.83;;;10.00;1.00;;;;;;5133234;27;20443;-71
2022/04/05 11:33:23;;;;;;;2.57;2.37;;;10.10;99.90;;;;;;5125901;27;20541;-72
2022/04/05 11:35:51;;;;;;;3.40;2.43;;;10.30;99.90;;;;;;5133596;27;20529;-72
2022/04/05 11:38:30;;;;;;;3.33;2.70;;;10.30;99.90;;;;;;5118974;27;20443;-73
2022/04/05 11:41:00;;;;;;;3.70;2.60;;;9.90;99.90;;;;;;5133275;27;20513;-72
2022/04/05 11:43:30;;;;;;;3.33;3.00;;;10.40;99.90;;;;;;5133107;27;20466;-71
2022/04/05 11:46:00;;;;;;;2.47;2.20;;;10.30;1.00;;;;;;5133075;27;20438;-72
2022/04/05 11:48:29;;;;;;;3.27;2.57;;;10.30;99.90;;;;;;5133228;27;20629;-72
2022/04/05 11:50:59;;;;;;;5.37;2.70;;;10.40;1.00;;;;;;5132216;27;20438;-71
2022/04/05 11:53:28;;;;;;;4.13;3.10;;;10.40;1.00;;;;;;5132355;27;20439;-71
2022/04/05 11:56:17;;;;;;;3.73;2.43;;;10.30;99.90;;;;;;5132627;27;20937;-72
2022/04/05 11:58:46;;;;;;;4.17;2.67;;;10.40;38.30;;;;;;5132975;27;20431;-72
2022/04/05 12:01:15;;;;;;;4.03;2.77;;;10.70;1.00;;;;;;5131933;27;20981;-71
2022/04/05 12:03:50;;;;;;;5.13;2.80;;;10.60;1.00;;;;;;5120285;27;20454;-71
2022/04/05 12:06:21;;;;;;;4.07;2.30;;;10.50;1.00;;;;;;5105765;27;20841;-71
2022/04/05 12:08:49;;;;;;;3.30;2.53;;;10.70;1.00;;;;;;5132648;27;20457;-71
2022/04/05 12:11:20;;;;;;;3.33;2.50;;;10.80;1.00;;;;;;5132156;27;20439;-72
2022/04/05 12:13:55;;;;;;;4.70;2.60;;;11.30;99.90;;;;;;5132048;27;20439;-71
2022/04/05 12:16:22;;;;;;;5.10;2.37;;;11.40;99.90;;;;;;5132053;27;20534;-71
2022/04/05 12:18:51;;;;;;;3.37;2.40;;;11.10;99.90;;;;;;5132108;27;20496;-71
2022/04/05 12:21:20;;;;;;;3.73;2.30;;;11.10;99.90;;;;;;5131703;27;20895;-71
2022/04/05 12:23:48;;;;;;;2.50;2.30;;;11.10;99.90;;;;;;5131945;27;20443;-71
2022/04/05 12:26:18;;;;;;;4.20;2.60;;;11.00;99.90;;;;;;5131936;27;20434;-70
2022/04/05 12:28:48;;;;;;;2.80;2.30;;;10.80;1.00;;;;;;5132119;27;20907;-72
2022/04/05 12:31:17;;;;;;;5.17;2.50;;;10.70;1.00;;;;;;5131270;27;20470;-71
2022/04/05 12:33:59;;;;;;;2.60;2.27;;;10.70;99.90;;;;;;5125171;27;20911;-71
2022/04/05 12:36:32;;;;;;;3.17;2.10;;;10.90;1.00;;;;;;5129458;27;20826;-71
2022/04/05 12:39:00;;;;;;;4.60;2.70;;;11.10;1.00;;;;;;5121938;27;20473;-71
2022/04/05 12:41:27;;;;;;;2.93;2.60;;;11.10;99.90;;;;;;5131973;27;20498;-71
2022/04/05 12:44:08;;;;;;;2.77;2.43;;;11.00;1.00;;;;;;5131388;27;20870;-71
2022/04/05 12:46:41;;;;;;;2.37;1.90;;;10.90;99.90;;;;;;5131938;27;20442;-72
2022/04/05 12:49:18;;;;;;;3.40;2.50;;;11.00;99.90;;;;;;5131264;27;20973;-70
2022/04/05 12:51:45;;;;;;;3.03;2.03;;;11.00;99.90;;;;;;5131474;27;20441;-71
2022/04/05 12:54:30;;;;;;;3.27;2.20;;;11.00;99.90;;;;;;5131151;27;20530;-71
2022/04/05 12:57:15;;;;;;;4.27;2.43;;;11.10;99.90;;;;;;5131757;27;20475;-72
2022/04/05 12:59:42;;;;;;;2.37;1.87;;;11.10;99.90;;;;;;5104859;28;20445;-72
2022/04/05 13:02:16;;;;;;;2.53;1.87;;;11.10;99.90;;;;;;5130615;27;20592;-70
2022/04/05 13:04:45;;;;;;;4.60;2.40;;;11.20;99.90;;;;;;5111288;27;20448;-72
2022/04/05 13:07:12;;;;;;;3.37;2.00;;;11.30;99.90;;;;;;5135112;27;20450;-72
2022/04/05 13:09:39;;;;;;;2.60;2.00;;;11.40;99.90;;;;;;5135896;27;20537;-71
2022/04/05 13:12:10;;;;;;;2.27;1.87;;;11.30;99.90;;;;;;5134455;27;20496;-72
2022/04/05 13:14:38;;;;;;;1.90;1.70;;;11.40;99.90;;;;;;5135485;27;20450;-72
2022/04/05 13:17:06;;;;;;;2.10;1.77;;;11.40;53.20;;;;;;5135076;27;20483;-71
2022/04/05 13:19:34;;;;;;;2.23;1.47;;;11.50;84.70;;;;;;5135496;27;20878;-71
2022/04/05 13:22:11;;;;;;;2.63;2.23;;;11.30;96.60;;;;;;5134412;27;20565;-71
2022/04/05 13:24:40;;;;;;;2.83;1.87;;;11.30;99.90;;;;;;5135737;27;20438;-73
2022/04/05 13:27:08;;;;;;;2.10;1.90;;;11.30;99.90;;;;;;5135064;27;20814;-71
2022/04/05 13:29:36;;;;;;;3.20;2.00;;;11.30;99.90;;;;;;5135307;27;20538;-71
2022/04/05 13:32:06;;;;;;;3.30;2.03;;;11.30;99.90;;;;;;5134526;27;20805;-71
2022/04/05 13:34:36;;;;;;;1.87;1.70;;;11.30;99.90;;;;;;5129121;27;20931;-71
2022/04/05 13:37:05;;;;;;;1.97;1.73;;;11.20;99.90;;;;;;5101389;28;20456;-72
2022/04/05 13:39:35;;;;;;;2.50;2.23;;;11.30;99.90;;;;;;5129660;27;20581;-71
2022/04/05 13:42:03;;;;;;;3.67;2.70;;;11.20;99.90;;;;;;5134485;27;20486;-72
2022/04/05 13:44:30;;;;;;;2.80;2.40;;;11.40;99.90;;;;;;5135380;27;20518;-71
2022/04/05 13:46:58;;;;;;;2.00;1.83;;;11.30;99.90;;;;;;5135309;27;20442;-72
2022/04/05 13:49:25;;;;;;;2.50;2.00;;;11.30;99.90;;;;;;5134980;27;20538;-72
2022/04/05 13:51:54;;;;;;;3.10;2.43;;;11.30;99.90;;;;;;5134741;27;20522;-72
2022/04/05 13:54:22;;;;;;;2.33;1.80;;;11.40;99.90;;;;;;5134436;27;20877;-72
2022/04/05 13:56:49;;;;;;;2.60;2.37;;;11.40;99.90;;;;;;5135009;27;20946;-72
2022/04/05 13:59:16;;;;;;;2.67;2.10;;;11.30;99.90;;;;;;5134441;27;20446;-71
2022/04/05 14:01:44;;;;;;;1.93;1.83;;;11.20;99.90;;;;;;5134077;27;20570;-73
2022/04/05 14:04:11;;;;;;;5.60;2.90;;;11.10;99.90;;;;;;5121695;27;20503;-71
2022/04/05 14:06:39;;;;;;;2.67;2.10;;;11.10;99.90;;;;;;5134744;27;20447;-71
2022/04/05 14:09:06;;;;;;;2.60;2.30;;;11.20;99.90;;;;;;5134015;27;20462;-72
2022/04/05 14:11:34;;;;;;;2.43;2.03;;;11.40;99.90;;;;;;5134417;27;20453;-71
2022/04/05 14:14:01;;;;;;;5.73;3.00;;;11.50;99.90;;;;;;5133055;27;20986;-73
2022/04/05 14:16:29;;;;;;;3.07;2.27;;;11.60;99.90;;;;;;5134581;27;20457;-71
2022/04/05 14:18:56;;;;;;;2.50;1.83;;;11.50;99.90;;;;;;5134286;27;20451;-72
2022/04/05 14:21:25;;;;;;;2.33;1.77;;;11.50;99.90;;;;;;5133385;27;20447;-72
2022/04/05 14:23:52;;;;;;;3.57;2.10;;;11.50;99.90;;;;;;5133629;27;20478;-72
2022/04/05 14:26:19;;;;;;;2.90;2.00;;;11.70;99.90;;;;;;5133879;27;21127;-71